createdAt,value
2019-03-01T00:01:25.516Z,6.73
2019-03-01T00:03:58.559Z,17.60
2019-03-01T00:06:37.204Z,7.60
2019-03-01T00:09:31.013Z,7.87
2019-03-01T00:12:20.024Z,1.47
2019-03-01T00:15:16.351Z,1.77
2019-03-01T00:17:57.759Z,7.10
2019-03-01T00:20:54.635Z,5.57
2019-03-01T00:23:42.631Z,5.70
2019-03-01T00:26:33.474Z,2.30
2019-03-01T00:29:28.767Z,8.90
2019-03-01T00:32:10.019Z,5.50
2019-03-01T00:34:51.379Z,7.10
2019-03-01T00:37:44.638Z,1.97
2019-03-01T00:40:26.264Z,2.77
2019-03-01T00:43:10.598Z,0.70
2019-03-01T00:45:40.154Z,3.57
2019-03-01T00:48:09.799Z,2.23
2019-03-01T00:50:39.339Z,9.07
2019-03-01T00:53:11.775Z,2.03
2019-03-01T00:55:41.391Z,1.27
2019-03-01T00:58:11.213Z,3.10
2019-03-01T01:00:44.276Z,5.33
2019-03-01T01:03:13.777Z,0.90
2019-03-01T01:05:43.748Z,3.90
2019-03-01T01:08:13.705Z,3.23
2019-03-01T01:10:44.192Z,0.80
2019-03-01T01:13:13.679Z,0.90
2019-03-01T01:15:43.218Z,1.30
2019-03-01T01:18:12.715Z,2.40
2019-03-01T01:20:42.266Z,2.13
2019-03-01T01:23:12.390Z,7.60
2019-03-01T01:25:42.293Z,3.40
2019-03-01T01:28:11.979Z,2.50
2019-03-01T01:30:41.483Z,5.00
2019-03-01T01:33:10.936Z,4.93
2019-03-01T01:35:40.434Z,4.30
2019-03-01T01:38:10.091Z,1.20
2019-03-01T01:40:39.515Z,2.70
2019-03-01T01:43:08.961Z,4.37
2019-03-01T01:45:38.567Z,3.57
2019-03-01T01:48:08.147Z,2.23
2019-03-01T01:50:37.579Z,2.43
2019-03-01T01:53:07.571Z,7.60
2019-03-01T01:55:37.207Z,7.60
2019-03-01T01:58:07.301Z,5.90
2019-03-01T02:00:37.112Z,3.67
2019-03-01T02:03:06.667Z,5.97
2019-03-01T02:05:36.100Z,15.17
2019-03-01T02:08:07.122Z,3.03
2019-03-01T02:10:37.059Z,1.10
2019-03-01T02:13:06.684Z,1.37
2019-03-01T02:15:36.122Z,0.80
2019-03-01T02:18:05.685Z,2.73
2019-03-01T02:20:35.439Z,1.00
2019-03-01T02:23:05.211Z,1.27
2019-03-01T02:25:34.734Z,1.43
2019-03-01T02:28:04.305Z,2.50
2019-03-01T02:30:43.144Z,4.40
2019-03-01T02:33:12.643Z,6.87
2019-03-01T02:35:42.250Z,4.37
2019-03-01T02:38:12.118Z,3.37
2019-03-01T02:40:41.932Z,4.13
2019-03-01T02:43:12.648Z,5.23
2019-03-01T02:45:42.256Z,3.23
2019-03-01T02:48:11.751Z,1.30
2019-03-01T02:50:41.567Z,6.33
2019-03-01T02:53:11.427Z,2.40
2019-03-01T02:55:41.700Z,2.90
2019-03-01T02:58:11.130Z,5.00
2019-03-01T03:00:40.656Z,1.87
2019-03-01T03:03:10.149Z,2.70
2019-03-01T03:05:41.296Z,1.60
2019-03-01T03:08:11.601Z,1.77
2019-03-01T03:10:41.401Z,0.93
2019-03-01T03:13:11.092Z,2.70
2019-03-01T03:15:45.660Z,0.80
2019-03-01T03:18:15.169Z,1.20
2019-03-01T03:20:45.025Z,1.60
2019-03-01T03:23:14.722Z,1.90
2019-03-01T03:25:44.217Z,1.30
2019-03-01T03:28:13.836Z,10.33
2019-03-01T03:30:43.360Z,8.00
2019-03-01T03:33:12.856Z,10.47
2019-03-01T03:35:42.301Z,2.20
2019-03-01T03:38:12.088Z,3.70
2019-03-01T03:40:41.796Z,2.03
2019-03-01T03:43:23.690Z,1.97
2019-03-01T03:46:05.712Z,3.50
2019-03-01T03:48:36.310Z,2.20
2019-03-01T03:51:06.412Z,2.30
2019-03-01T03:53:55.220Z,3.97
2019-03-01T03:56:24.935Z,4.70
2019-03-01T03:58:54.857Z,3.83
2019-03-01T04:01:24.912Z,3.17
2019-03-01T04:04:13.694Z,2.93
2019-03-01T04:07:02.856Z,0.80
2019-03-01T04:09:32.356Z,1.57
2019-03-01T04:12:01.909Z,1.30
2019-03-01T04:14:31.442Z,7.80
2019-03-01T04:17:00.944Z,1.90
2019-03-01T04:19:30.509Z,0.80
2019-03-01T04:22:00.497Z,2.83
2019-03-01T04:24:30.004Z,1.90
2019-03-01T04:27:00.476Z,1.80
2019-03-01T04:29:30.231Z,1.90
2019-03-01T04:31:59.824Z,1.97
2019-03-01T04:34:29.283Z,1.27
2019-03-01T04:36:58.780Z,2.03
2019-03-01T04:39:28.268Z,2.77
2019-03-01T04:41:57.772Z,1.73
2019-03-01T04:44:27.593Z,3.33
2019-03-01T04:46:57.026Z,1.80
2019-03-01T04:49:26.458Z,2.03
2019-03-01T04:51:56.031Z,2.73
2019-03-01T04:54:25.462Z,15.73
2019-03-01T04:56:55.267Z,2.87
2019-03-01T04:59:25.071Z,3.00
2019-03-01T05:01:54.576Z,3.80
2019-03-01T05:04:24.087Z,2.00
2019-03-01T05:06:54.067Z,1.03
2019-03-01T05:09:23.839Z,2.23
2019-03-01T05:11:53.635Z,1.93
2019-03-01T05:14:23.155Z,1.13
2019-03-01T05:16:52.947Z,1.50
2019-03-01T05:19:23.792Z,1.80
2019-03-01T05:21:53.615Z,1.77
2019-03-01T05:24:23.056Z,1.50
2019-03-01T05:26:52.479Z,1.10
2019-03-01T05:29:22.378Z,1.83
2019-03-01T05:31:51.821Z,1.07
2019-03-01T05:34:21.247Z,7.00
2019-03-01T05:36:51.035Z,2.97
2019-03-01T05:39:20.464Z,2.00
2019-03-01T05:41:50.251Z,1.63
2019-03-01T05:44:19.720Z,2.87
2019-03-01T05:46:50.187Z,0.97
2019-03-01T05:49:19.923Z,0.80
2019-03-01T05:51:50.143Z,1.30
2019-03-01T05:54:19.890Z,2.10
2019-03-01T05:56:49.439Z,2.10
2019-03-01T05:59:22.915Z,0.97
2019-03-01T06:01:58.215Z,5.20
2019-03-01T06:04:31.072Z,1.23
2019-03-01T06:07:15.363Z,1.40
2019-03-01T06:10:02.805Z,2.47
2019-03-01T06:12:59.715Z,0.70
2019-03-01T06:15:50.367Z,3.53
2019-03-01T06:18:41.034Z,2.90
2019-03-01T06:21:22.175Z,0.90
2019-03-01T06:24:21.851Z,2.57
2019-03-01T06:27:04.550Z,3.43
2019-03-01T06:29:56.345Z,6.33
2019-03-01T06:32:37.643Z,2.40
2019-03-01T06:35:31.315Z,3.83
2019-03-01T06:38:50.557Z,2.70
2019-03-01T06:41:27.720Z,0.80
2019-03-01T06:44:03.307Z,3.00
2019-03-01T06:46:35.871Z,1.20
2019-03-01T06:49:07.219Z,1.60
2019-03-01T06:51:36.759Z,0.70
2019-03-01T06:54:06.330Z,7.60
2019-03-01T06:56:35.760Z,1.67
2019-03-01T06:59:06.363Z,0.80
2019-03-01T07:01:36.922Z,0.90
2019-03-01T07:04:07.143Z,0.70
2019-03-01T07:06:36.666Z,3.13
2019-03-01T07:09:07.290Z,0.90
2019-03-01T07:11:36.733Z,1.00
2019-03-01T07:14:06.329Z,1.90
2019-03-01T07:16:35.911Z,1.53
2019-03-01T07:19:05.338Z,0.77
2019-03-01T07:21:35.048Z,3.30
2019-03-01T07:24:05.592Z,2.10
2019-03-01T07:26:35.151Z,4.73
2019-03-01T07:29:04.656Z,1.10
2019-03-01T07:31:34.162Z,1.10
2019-03-01T07:34:03.698Z,1.67
2019-03-01T07:36:33.287Z,0.73
2019-03-01T07:39:03.499Z,1.73
2019-03-01T07:41:33.097Z,2.70
2019-03-01T07:44:03.091Z,1.70
2019-03-01T07:46:32.519Z,1.10
2019-03-01T07:49:02.208Z,2.20
2019-03-01T07:51:32.120Z,1.80
2019-03-01T07:54:01.630Z,2.57
2019-03-01T07:56:31.215Z,3.53
2019-03-01T07:59:01.114Z,1.97
2019-03-01T08:01:30.704Z,6.57
2019-03-01T08:04:00.215Z,0.90
2019-03-01T08:06:29.815Z,4.67
2019-03-01T08:08:59.250Z,1.63
2019-03-01T08:11:31.788Z,2.53
2019-03-01T08:14:00.255Z,2.20
2019-03-01T08:16:30.051Z,3.43
2019-03-01T08:18:59.552Z,1.50
2019-03-01T08:21:29.211Z,0.87
2019-03-01T08:23:59.076Z,1.30
2019-03-01T08:26:30.803Z,1.50
2019-03-01T08:29:00.291Z,8.43
2019-03-01T08:31:29.731Z,0.90
2019-03-01T08:33:59.171Z,1.87
2019-03-01T08:36:29.163Z,1.83
2019-03-01T08:39:00.783Z,1.00
2019-03-01T08:41:29.919Z,3.63
2019-03-01T08:43:59.389Z,0.90
2019-03-01T08:46:29.159Z,0.70
2019-03-01T08:48:59.152Z,1.23
2019-03-01T08:51:29.529Z,1.57
2019-03-01T08:53:59.305Z,1.10
2019-03-01T08:56:29.125Z,2.63
2019-03-01T08:58:58.651Z,1.23
2019-03-01T09:01:28.319Z,1.97
2019-03-01T09:04:06.711Z,1.43
2019-03-01T09:06:36.216Z,1.40
2019-03-01T09:09:08.616Z,0.80
2019-03-01T09:11:41.740Z,9.27
2019-03-01T09:14:09.843Z,1.33
2019-03-01T09:16:40.922Z,0.90
2019-03-01T09:19:11.754Z,1.03
2019-03-01T09:21:44.245Z,1.70
2019-03-01T09:24:12.467Z,0.80
2019-03-01T09:26:42.075Z,1.90
2019-03-01T09:29:13.028Z,1.87
2019-03-01T09:31:42.999Z,2.03
2019-03-01T09:34:14.599Z,3.33
2019-03-01T09:36:46.176Z,1.07
2019-03-01T09:39:18.103Z,1.30
2019-03-01T09:41:46.952Z,1.93
2019-03-01T09:44:16.438Z,2.60
2019-03-01T09:46:45.938Z,2.50
2019-03-01T09:49:16.064Z,4.17
2019-03-01T09:51:49.154Z,4.00
2019-03-01T09:54:16.711Z,5.60
2019-03-01T09:56:47.243Z,2.10
2019-03-01T09:59:17.228Z,1.43
2019-03-01T10:01:46.981Z,4.50
2019-03-01T10:04:16.739Z,1.80
2019-03-01T10:06:46.230Z,2.73
2019-03-01T10:09:15.651Z,1.60
2019-03-01T10:11:45.508Z,1.10
2019-03-01T10:14:14.935Z,1.60
2019-03-01T10:16:44.439Z,1.07
2019-03-01T10:19:13.891Z,1.07
2019-03-01T10:21:43.480Z,2.40
2019-03-01T10:24:13.235Z,1.97
2019-03-01T10:26:43.216Z,2.13
2019-03-01T10:29:13.008Z,1.10
2019-03-01T10:31:42.678Z,2.30
2019-03-01T10:34:12.142Z,1.10
2019-03-01T10:36:43.593Z,4.20
2019-03-01T10:39:14.813Z,16.37
2019-03-01T10:41:48.704Z,1.47
2019-03-01T10:44:18.532Z,1.53
2019-03-01T10:46:48.681Z,2.70
2019-03-01T10:49:18.137Z,2.73
2019-03-01T10:51:47.830Z,1.30
2019-03-01T10:54:17.349Z,2.80
2019-03-01T10:56:47.155Z,4.20
2019-03-01T10:59:17.271Z,2.50
2019-03-01T11:01:46.859Z,2.67
2019-03-01T11:04:16.688Z,1.13
2019-03-01T11:06:46.187Z,1.77
2019-03-01T11:09:15.979Z,1.57
2019-03-01T11:11:45.936Z,2.73
2019-03-01T11:14:15.441Z,2.17
2019-03-01T11:16:44.883Z,2.30
2019-03-01T11:19:14.715Z,4.33
2019-03-01T11:21:44.587Z,1.37
2019-03-01T11:24:14.903Z,2.10
2019-03-01T11:26:45.104Z,5.70
2019-03-01T11:29:15.027Z,2.10
2019-03-01T11:31:44.526Z,1.23
2019-03-01T11:34:14.305Z,6.20
2019-03-01T11:36:43.727Z,3.50
2019-03-01T11:39:14.263Z,2.50
2019-03-01T11:41:44.060Z,3.13
2019-03-01T11:44:18.564Z,2.73
2019-03-01T11:46:48.519Z,2.07
2019-03-01T11:49:38.995Z,2.40
2019-03-01T11:52:08.519Z,2.33
2019-03-01T11:54:37.967Z,2.13
2019-03-01T11:57:07.599Z,2.33
2019-03-01T11:59:37.363Z,2.10
2019-03-01T12:02:06.915Z,3.60
2019-03-01T12:04:36.419Z,1.60
2019-03-01T12:07:06.123Z,2.00
2019-03-01T12:09:35.623Z,2.23
2019-03-01T12:12:05.503Z,1.50
2019-03-01T12:14:37.191Z,2.30
2019-03-01T12:17:06.791Z,1.80
2019-03-01T12:19:36.356Z,2.87
2019-03-01T12:22:05.842Z,1.80
2019-03-01T12:24:35.272Z,1.87
2019-03-01T12:27:05.893Z,1.73
2019-03-01T12:29:35.789Z,0.80
2019-03-01T12:32:05.353Z,1.20
2019-03-01T12:34:34.779Z,1.50
2019-03-01T12:37:04.374Z,2.03
2019-03-01T12:39:35.392Z,5.00
2019-03-01T12:42:05.024Z,1.53
2019-03-01T12:44:34.742Z,2.17
2019-03-01T12:47:04.243Z,1.97
2019-03-01T12:49:33.790Z,2.53
2019-03-01T12:52:03.307Z,2.30
2019-03-01T12:54:32.748Z,8.13
2019-03-01T12:57:02.728Z,1.63
2019-03-01T12:59:32.579Z,2.30
2019-03-01T13:02:02.068Z,2.57
2019-03-01T13:04:31.827Z,1.90
2019-03-01T13:07:01.359Z,3.33
2019-03-01T13:09:30.856Z,1.33
2019-03-01T13:12:00.355Z,1.70
2019-03-01T13:14:29.924Z,1.80
2019-03-01T13:17:01.777Z,2.27
2019-03-01T13:19:30.635Z,1.77
2019-03-01T13:22:00.103Z,19.17
2019-03-01T13:24:29.815Z,1.80
2019-03-01T13:26:59.243Z,2.67
2019-03-01T13:29:28.864Z,3.60
2019-03-01T13:31:58.744Z,3.27
2019-03-01T13:34:28.240Z,1.97
2019-03-01T13:36:58.180Z,1.50
2019-03-01T13:39:48.694Z,4.77
2019-03-01T13:42:18.388Z,1.80
2019-03-01T13:44:47.968Z,2.13
2019-03-01T13:47:17.771Z,3.43
2019-03-01T13:49:47.227Z,1.57
2019-03-01T13:52:16.668Z,2.47
2019-03-01T13:54:46.426Z,1.80
2019-03-01T13:57:22.197Z,2.87
2019-03-01T13:59:51.703Z,2.63
2019-03-01T14:02:21.593Z,1.40
2019-03-01T14:04:51.068Z,2.80
2019-03-01T14:07:20.691Z,2.30
2019-03-01T14:09:50.559Z,1.13
2019-03-01T14:12:20.253Z,2.87
2019-03-01T14:14:49.711Z,4.47
2019-03-01T14:17:21.127Z,3.63
2019-03-01T14:19:50.795Z,2.17
2019-03-01T14:22:21.376Z,1.90
2019-03-01T14:24:50.806Z,2.63
2019-03-01T14:27:20.479Z,4.93
2019-03-01T14:29:53.610Z,3.17
2019-03-01T14:32:21.914Z,2.80
2019-03-01T14:34:51.836Z,1.47
2019-03-01T14:37:22.316Z,2.47
2019-03-01T14:39:52.124Z,2.77
2019-03-01T14:42:21.799Z,2.23
2019-03-01T14:44:51.763Z,2.63
2019-03-01T14:47:21.207Z,1.83
2019-03-01T14:49:53.998Z,10.10
2019-03-01T14:52:22.714Z,3.13
2019-03-01T14:54:52.712Z,2.30
2019-03-01T14:57:24.603Z,2.40
2019-03-01T15:00:00.243Z,1.43
2019-03-01T15:02:40.653Z,3.40
2019-03-01T15:05:17.688Z,2.83
2019-03-01T15:07:41.515Z,1.83
2019-03-01T15:10:13.825Z,8.43
2019-03-01T15:12:43.499Z,4.00
2019-03-01T15:15:13.815Z,3.17
2019-03-01T15:17:44.681Z,1.60
2019-03-01T15:20:17.258Z,2.63
2019-03-01T15:22:48.685Z,1.80
2019-03-01T15:25:18.507Z,3.13
2019-03-01T15:27:49.999Z,3.37
2019-03-01T15:30:19.727Z,2.33
2019-03-01T15:32:49.625Z,2.70
2019-03-01T15:35:22.517Z,3.63
2019-03-01T15:38:01.267Z,2.90
2019-03-01T15:40:31.469Z,2.73
2019-03-01T15:43:02.005Z,1.80
2019-03-01T15:45:31.622Z,2.53
2019-03-01T15:48:01.881Z,3.10
2019-03-01T15:50:32.752Z,3.30
2019-03-01T15:53:02.358Z,3.50
2019-03-01T15:55:31.863Z,1.50
2019-03-01T15:58:01.335Z,4.20
2019-03-01T16:00:31.423Z,3.83
2019-03-01T16:03:01.206Z,13.60
2019-03-01T16:05:34.302Z,2.57
2019-03-01T16:08:05.448Z,3.87
2019-03-01T16:10:36.187Z,5.93
2019-03-01T16:13:08.343Z,3.50
2019-03-01T16:15:38.875Z,3.27
2019-03-01T16:18:08.814Z,4.20
2019-03-01T16:20:38.371Z,2.50
2019-03-01T16:23:08.076Z,6.17
2019-03-01T16:25:37.503Z,6.70
2019-03-01T16:28:09.305Z,8.80
2019-03-01T16:30:38.802Z,5.87
2019-03-01T16:33:08.332Z,6.63
2019-03-01T16:35:38.359Z,7.13
2019-03-01T16:38:08.107Z,7.93
2019-03-01T16:40:38.224Z,14.80
2019-03-01T16:43:07.726Z,10.23
2019-03-01T16:45:37.508Z,12.03
2019-03-01T16:48:07.299Z,9.80
2019-03-01T16:50:36.902Z,6.40
2019-03-01T16:53:06.981Z,9.33
2019-03-01T16:55:36.822Z,10.20
2019-03-01T16:58:07.285Z,18.47
2019-03-01T17:00:37.215Z,11.30
2019-03-01T17:03:09.875Z,18.83
2019-03-01T17:05:39.871Z,24.47
2019-03-01T17:08:10.505Z,7.90
2019-03-01T17:10:40.363Z,13.87
2019-03-01T17:13:10.377Z,17.97
2019-03-01T17:15:40.111Z,9.13
2019-03-01T17:18:12.206Z,19.57
2019-03-01T17:20:40.948Z,6.43
2019-03-01T17:23:11.438Z,15.83
2019-03-01T17:25:41.035Z,8.97
2019-03-01T17:28:10.534Z,24.90
2019-03-01T17:30:40.688Z,20.40
2019-03-01T17:33:12.754Z,32.87
2019-03-01T17:35:41.849Z,33.80
2019-03-01T17:38:12.115Z,22.00
2019-03-01T17:40:42.028Z,36.47
2019-03-01T17:43:11.702Z,26.33
2019-03-01T17:45:41.388Z,38.83
2019-03-01T17:48:10.828Z,43.63
2019-03-01T17:50:41.724Z,35.43
2019-03-01T17:53:11.593Z,19.07
2019-03-01T17:55:41.243Z,35.10
2019-03-01T17:58:10.766Z,32.83
2019-03-01T18:00:41.703Z,42.90
2019-03-01T18:03:11.744Z,26.23
2019-03-01T18:05:41.604Z,31.37
2019-03-01T18:08:13.948Z,38.77
2019-03-01T18:10:43.212Z,37.73
2019-03-01T18:13:12.718Z,36.10
2019-03-01T18:15:48.467Z,41.77
2019-03-01T18:18:17.927Z,40.50
2019-03-01T18:20:47.784Z,47.40
2019-03-01T18:23:17.715Z,40.80
2019-03-01T18:25:47.211Z,24.53
2019-03-01T18:28:18.241Z,51.73
2019-03-01T18:30:47.766Z,41.03
2019-03-01T18:33:20.865Z,24.97
2019-03-01T18:35:48.995Z,43.70
2019-03-01T18:38:19.419Z,34.70
2019-03-01T18:40:51.783Z,25.87
2019-03-01T18:43:21.437Z,10.03
2019-03-01T18:45:50.968Z,31.93
2019-03-01T18:48:21.517Z,23.40
2019-03-01T18:50:55.344Z,26.50
2019-03-01T18:53:28.448Z,23.80
2019-03-01T18:55:56.116Z,28.53
2019-03-01T18:58:25.644Z,32.53
2019-03-01T19:00:55.214Z,19.80
2019-03-01T19:03:24.650Z,20.43
2019-03-01T19:06:00.857Z,24.47
2019-03-01T19:08:30.443Z,31.17
2019-03-01T19:11:02.919Z,27.93
2019-03-01T19:13:31.080Z,35.10
2019-03-01T19:16:00.543Z,35.90
2019-03-01T19:18:30.359Z,35.80
2019-03-01T19:20:59.792Z,37.50
2019-03-01T19:23:32.310Z,28.53
2019-03-01T19:26:01.647Z,18.63
2019-03-01T19:28:31.735Z,24.93
2019-03-01T19:31:01.490Z,26.17
2019-03-01T19:33:31.382Z,8.60
2019-03-01T19:36:03.508Z,28.20
2019-03-01T19:38:32.659Z,30.17
2019-03-01T19:41:02.370Z,16.23
2019-03-01T19:43:32.147Z,32.70
2019-03-01T19:46:01.679Z,41.87
2019-03-01T19:48:34.419Z,27.47
2019-03-01T19:51:02.651Z,42.73
2019-03-01T19:53:32.228Z,20.83
2019-03-01T19:56:01.663Z,13.53
2019-03-01T19:58:31.436Z,33.87
2019-03-01T20:01:00.979Z,24.70
2019-03-01T20:03:30.494Z,31.10
2019-03-01T20:06:00.487Z,33.47
2019-03-01T20:08:30.864Z,28.07
2019-03-01T20:11:00.555Z,31.40
2019-03-01T20:13:31.267Z,29.67
2019-03-01T20:16:00.968Z,27.80
2019-03-01T20:18:30.622Z,15.83
2019-03-01T20:21:00.214Z,33.17
2019-03-01T20:23:30.757Z,15.83
2019-03-01T20:26:00.666Z,18.63
2019-03-01T20:28:30.767Z,9.77
2019-03-01T20:31:04.875Z,23.20
2019-03-01T20:33:35.939Z,27.40
2019-03-01T20:36:05.716Z,29.60
2019-03-01T20:38:37.116Z,11.57
2019-03-01T20:41:18.306Z,32.23
2019-03-01T20:43:47.880Z,37.00
2019-03-01T20:46:17.315Z,1.37
2019-03-01T20:48:47.256Z,0.93
2019-03-01T20:51:16.900Z,1.63
2019-03-01T20:53:49.457Z,6.93
2019-03-01T20:56:18.965Z,20.57
2019-03-01T20:58:48.448Z,6.90
2019-03-01T21:01:18.321Z,11.10
2019-03-01T21:03:48.271Z,7.40
2019-03-01T21:06:19.704Z,36.70
2019-03-01T21:08:48.967Z,34.17
2019-03-01T21:11:21.816Z,28.87
2019-03-01T21:13:49.941Z,16.87
2019-03-01T21:16:20.563Z,34.17
2019-03-01T21:18:52.271Z,35.50
2019-03-01T21:21:22.248Z,22.53
2019-03-01T21:23:51.826Z,28.07
2019-03-01T21:26:21.355Z,6.07
2019-03-01T21:28:51.004Z,24.40
2019-03-01T21:31:20.452Z,20.43
2019-03-01T21:33:49.955Z,17.33
2019-03-01T21:36:19.522Z,20.37
2019-03-01T21:38:49.438Z,41.73
2019-03-01T21:41:19.992Z,19.00
2019-03-01T21:43:49.730Z,28.37
2019-03-01T21:46:19.499Z,42.10
2019-03-01T21:48:49.056Z,37.43
2019-03-01T21:51:18.689Z,36.90
2019-03-01T21:53:49.664Z,27.17
2019-03-01T21:56:19.572Z,46.37
2019-03-01T21:58:49.033Z,38.50
2019-03-01T22:01:18.716Z,39.93
2019-03-01T22:03:48.324Z,35.63
2019-03-01T22:06:20.684Z,13.80
2019-03-01T22:08:49.761Z,33.77
2019-03-01T22:11:20.816Z,31.57
2019-03-01T22:13:50.718Z,3.70
2019-03-01T22:16:20.619Z,16.90
2019-03-01T22:18:50.064Z,20.43
2019-03-01T22:21:22.588Z,31.17
2019-03-01T22:23:52.571Z,32.07
2019-03-01T22:26:22.652Z,19.70
2019-03-01T22:28:52.464Z,39.50
2019-03-01T22:31:22.234Z,37.33
2019-03-01T22:33:52.513Z,22.37
2019-03-01T22:36:24.020Z,19.33
2019-03-01T22:38:53.528Z,21.70
2019-03-01T22:41:22.995Z,42.10
2019-03-01T22:43:52.470Z,23.80
2019-03-01T22:46:24.853Z,33.73
2019-03-01T22:48:56.335Z,12.30
2019-03-01T22:51:24.580Z,11.27
2019-03-01T22:54:00.247Z,18.03
2019-03-01T22:56:29.679Z,6.93
2019-03-01T22:58:59.539Z,7.80
2019-03-01T23:01:32.734Z,21.63
2019-03-01T23:04:03.128Z,3.73
2019-03-01T23:06:32.762Z,25.03
2019-03-01T23:09:03.681Z,13.00
2019-03-01T23:11:35.412Z,36.77
2019-03-01T23:14:05.337Z,26.40
2019-03-01T23:16:36.522Z,17.17
2019-03-01T23:19:06.369Z,33.73
2019-03-01T23:21:36.806Z,27.10
2019-03-01T23:24:06.347Z,17.43
2019-03-01T23:26:35.862Z,22.40
2019-03-01T23:29:05.551Z,21.70
2019-03-01T23:31:35.665Z,13.27
2019-03-01T23:34:07.004Z,20.27
2019-03-01T23:36:37.329Z,15.30
2019-03-01T23:39:07.090Z,25.83
2019-03-01T23:41:36.826Z,22.37
2019-03-01T23:44:07.750Z,34.13
2019-03-01T23:46:37.642Z,27.10
2019-03-01T23:49:07.075Z,25.87
2019-03-01T23:51:36.983Z,16.90
2019-03-01T23:54:09.051Z,14.83
2019-03-01T23:56:38.742Z,26.83
2019-03-01T23:59:08.475Z,17.40
